METAR Data
IDs: Format: Raw Decoded Include TAF

Data at: 0117 UTC 16 Jan 2019

KXBP 160055Z AUTO 10SM OVC031 10/05 A3023 RMK AO2 T01030053 PNO
KXBP 160035Z AUTO 00000KT 10SM OVC031 11/05 A3023 RMK AO2 T01050052
KXBP 160015Z AUTO 17004KT 10SM OVC033 11/05 A3022 RMK AO2 T01070051 PNO
KXBP 152355Z AUTO 15004KT 10SM OVC033 11/05 RMK AO2 6//// T01100051 10120 20100 PNO TSNO
KXBP 152335Z AUTO 17004KT 10SM OVC033 11/05 A3021 RMK AO2 T01110051 TSNO
KXBP 152315Z AUTO 19005KT 10SM OVC033 11/05 A3020 RMK AO2 T01130051 PNO
KXBP 152255Z AUTO 18006KT 10SM OVC033 12/05 A3021 RMK AO2 T01150050 PNO
KXBP 152235Z AUTO 16004KT 10SM OVC033 12/05 A3020 RMK AO2 T01160050
KXBP 152215Z AUTO 19008KT 10SM OVC033 12/05 A3020 RMK AO2 T01180050 PNO
KXBP 152155Z AUTO 17005KT 10SM OVC033 12/05 A3022 RMK AO2 T01180050 PNO
KXBP 152135Z AUTO 10SM OVC033 12/05 A3022 RMK AO2 T01200049 PNO
KXBP 152115Z AUTO 23005KT 10SM OVC035 12/05 A3022 RMK AO2 T01200047
KXBP 152055Z AUTO 19005KT 10SM OVC035 12/04 A3023 RMK AO2 6//// T01200044 PNO
KXBP 152035Z AUTO 20005KT 10SM OVC035 12/04 A3023 RMK AO2 T01200042
KXBP 152015Z AUTO 21006KT 10SM OVC035 12/04 A3023 RMK AO2 T01200042 PNO
KXBP 151955Z AUTO 21007KT 10SM OVC035 12/04 A3024 RMK AO2 T01200042 PNO
KXBP 151935Z AUTO 10SM OVC037 12/04 A3025 RMK AO2 T01170043
KXBP 151915Z AUTO 10SM OVC037 12/04 A3026 RMK AO2 T01160042 PNO
KXBP 151855Z AUTO 10SM OVC039 11/04 A3027 RMK AO2 T01140040
KXBP 151835Z AUTO 19004KT 10SM OVC039 11/04 A3029 RMK AO2 T01060039 PNO
KXBP 151815Z AUTO 17005KT 10SM OVC041 10/04 A3030 RMK AO2 T01010037
KXBP 151755Z AUTO 19004KT 10SM OVC041 10/04 A3033 RMK AO2 6//// T01000038 10100 20045
KXBP 151735Z AUTO 19006KT 10SM OVC041 10/04 A3033 RMK AO2 T00960037
KXBP 151715Z AUTO 10SM OVC041 09/04 A3035 RMK AO2 T00900036 PNO
KXBP 151655Z AUTO 19003KT 10SM OVC043 09/04 A3035 RMK AO2 T00860035 PNO TSNO
KXBP 151635Z AUTO 10SM OVC043 08/03 A3035 RMK AO2 T00820034
KXBP 151615Z AUTO 00000KT 10SM OVC043 08/03 A3035 RMK AO2 T00780032 TSNO
KXBP 151555Z AUTO 00000KT 10SM OVC043 07/03 A3034 RMK AO2 T00720030 PNO
KXBP 151535Z AUTO 00000KT 10SM OVC045 07/03 A3035 RMK AO2 T00670030 TSNO
KXBP 151515Z AUTO 15004KT 10SM OVC045 06/03 A3034 RMK AO2 T00630026 PNO
KXBP 151455Z AUTO 00000KT 10SM OVC045 06/03 A3033 RMK AO2 6//// T00600026 PNO TSNO
KXBP 151435Z AUTO 14003KT 10SM OVC045 06/03 A3033 RMK AO2 T00550025 TSNO
KXBP 151415Z AUTO 00000KT 10SM OVC045 05/03 A3033 RMK AO2 T00520027
KXBP 151355Z AUTO 10SM OVC043 05/03 A3033 RMK AO2 T00500027 PNO
KXBP 151335Z AUTO 10SM OVC043 05/03 RMK AO2 T00500027 PNO
KXBP 151315Z AUTO 10SM OVC043 05/03 A3033 RMK AO2 T00490026 PNO
KXBP 151255Z AUTO 00000KT 10SM OVC043 05/03 A3032 RMK AO2 T00480026 PNO
KXBP 151235Z AUTO 10SM OVC043 05/03 A3031 RMK AO2 T00480026
KXBP 151215Z AUTO 10SM OVC043 05/03 A3031 RMK AO2 T00470025 PNO
KXBP 151155Z AUTO 00000KT 10SM OVC043 05/03 A3031 RMK AO2 6//// 7//// T00450026 10045 20015 PNO
KXBP 151135Z AUTO 00000KT 10SM OVC043 04/03 RMK AO2 T00420025 PNO
KXBP 151115Z AUTO 00000KT 10SM OVC043 04/03 A3031 RMK AO2 T00410025 PNO
KXBP 151055Z AUTO 10SM OVC043 04/02 A3031 RMK AO2 T00400023 TSNO
KXBP 151035Z AUTO 10SM OVC043 04/02 A3032 RMK AO2 T00400022
KXBP 151015Z AUTO 00000KT 10SM OVC043 04/02 A3033 RMK AO2 T00400022 PNO
KXBP 150955Z AUTO 00000KT 10SM OVC043 04/02 A3034 RMK AO2 T00400021 PNO
KXBP 150935Z AUTO 10SM OVC043 04/02 A3034 RMK AO2 T00380020 PNO
KXBP 150915Z AUTO 00000KT 10SM OVC043 04/02 A3035 RMK AO2 T00370019 PNO
KXBP 150855Z AUTO 10SM OVC045 04/02 A3035 RMK AO2 6//// T00360017 PNO
KXBP 150835Z AUTO 00000KT 10SM OVC045 03/02 A3036 RMK AO2 T00330015
KXBP 150815Z AUTO 10SM OVC045 03/01 A3035 RMK AO2 T00310012 PNO TSNO
KXBP 150755Z AUTO 00000KT 10SM OVC045 03/01 A3035 RMK AO2 T00280013 PNO
KXBP 150735Z AUTO 7SM OVC045 02/01 A3034 RMK AO2 T00220014 PNO
KXBP 150715Z AUTO 00000KT 7SM OVC045 02/01 A3034 RMK AO2 T00190012 PNO
KXBP 150655Z AUTO 00000KT 7SM OVC047 02/01 A3034 RMK AO2 T00170010
KXBP 150635Z AUTO 7SM OVC047 02/01 A3035 RMK AO2 T00160007 PNO
KXBP 150615Z AUTO 7SM OVC047 02/01 A3036 RMK AO2 T00170007 PNO
KXBP 150555Z AUTO 7SM OVC047 02/01 A3036 RMK AO2 6//// T00210005 10051 20001
KXBP 150535Z AUTO 00000KT 7SM OVC047 02/01 A3037 RMK AO2 T00180005 PNO
KXBP 150515Z AUTO 00000KT 10SM OVC047 03/00 A3038 RMK AO2 T00310002 PNO
KXBP 150455Z AUTO 10SM BKN047 03/01 A3038 RMK AO2 T00310005 PNO
KXBP 150435Z AUTO 10SM SCT047 02/00 A3037 RMK AO2 T00210004 PNO
KXBP 150415Z AUTO 10SM CLR 00/00 A3038 RMK AO2 T00021005 PNO TSNO
KXBP 150355Z AUTO 7SM CLR 01/00 A3038 RMK AO2 T00061001
KXBP 150335Z AUTO 10SM CLR 02/00 A3038 RMK AO2 T00171005 PNO
KXBP 150315Z AUTO 00000KT 10SM CLR 01/00 A3038 RMK AO2 T00141002 PNO
KXBP 150255Z AUTO 00000KT 10SM CLR 02/00 A3038 RMK AO2 6//// T00181002 PNO TSNO
KXBP 150235Z AUTO 10SM CLR 01/00 A3038 RMK AO2 T00101005 PNO
KXBP 150215Z AUTO 10SM CLR 02/00 A3038 RMK AO2 T00201001
KXBP 150155Z AUTO 10SM CLR 03/00 A3039 RMK AO2 T00281001 PNO
KXBP 150135Z AUTO 10SM CLR 03/00 A3039 RMK AO2 T00330000
KXBP 150115Z AUTO 14003KT 10SM CLR 03/00 A3038 RMK AO2 T00320000 PNO TSNO
KXBP 150055Z AUTO 10SM CLR 04/00 A3038 RMK AO2 T00350000 PNO
KXBP 150035Z AUTO 12003KT 10SM CLR 04/00 A3038 RMK AO2 T00400000 PNO
KXBP 150015Z AUTO 10SM CLR 05/00 A3037 RMK AO2 T00450000 PNO
KXBP 142355Z AUTO 00000KT 10SM CLR 05/00 A3037 RMK AO2 6//// T00520000 10071 20022 PNO
KXBP 142335Z AUTO 00000KT 10SM CLR 06/00 A3038 RMK AO2 T00570000 PNO
KXBP 142315Z AUTO 00000KT 10SM CLR 07/00 A3038 RMK AO2 T00650000 PNO
KXBP 142255Z AUTO 00000KT 10SM CLR 07/00 A3038 RMK AO2 T00660000 PNO
KXBP 142235Z AUTO 00000KT 10SM CLR 07/00 A3039 RMK AO2 T00650000 PNO
KXBP 142215Z AUTO 00000KT 10SM CLR 07/00 A3039 RMK AO2 T00650001 PNO
KXBP 142155Z AUTO 00000KT 10SM CLR 07/00 A3039 RMK AO2 T00700003
KXBP 142135Z AUTO 00000KT CLR 07/00 A3038 RMK AO2 T00670004
KXBP 142115Z AUTO 10SM CLR 07/00 A3039 RMK AO2 T00650001 PNO
KXBP 142055Z AUTO 12003KT 10SM CLR 06/00 A3040 RMK AO2 6//// T00630001
KXBP 142035Z AUTO 00000KT 10SM CLR 06/00 A3040 RMK AO2 T00560001
KXBP 142015Z AUTO 10SM SCT018 05/00 A3042 RMK AO2 T00511001
KXBP 141955Z AUTO 10SM SCT018 05/00 A3042 RMK AO2 T00481001 PNO
KXBP 141935Z AUTO 29003KT 10SM SCT016 04/00 A3043 RMK AO2 T00401002 PNO
KXBP 141915Z AUTO 10SM OVC016 04/00 A3044 RMK AO2 T00361002 PNO TSNO
KXBP 141855Z AUTO 28003KT 10SM OVC016 03/00 A3046 RMK AO2 T00311004
KXBP 141835Z AUTO 00000KT 10SM OVC014 03/00 A3047 RMK AO2 T00301005 PNO
KXBP 141815Z AUTO 00000KT 10SM BKN014 03/M01 A3048 RMK AO2 T00261007 PNO
KXBP 141755Z AUTO 10SM OVC012 02/M01 A3050 RMK AO2 6//// T00231008 10024 20010 PNO TSNO
KXBP 141735Z AUTO 28003KT 10SM OVC012 02/M01 A3051 RMK AO2 T00221007 PNO TSNO
KXBP 141715Z AUTO 10SM OVC012 02/M01 A3052 RMK AO2 T00201007
KXBP 141655Z AUTO 10SM OVC012 02/M01 A3052 RMK AO2 T00171010 PNO
KXBP 141635Z AUTO 00000KT 10SM OVC012 02/M01 A3052 RMK AO2 T00181010 PNO
KXBP 141615Z AUTO 10SM OVC012 02/M01 A3052 RMK AO2 T00161009
KXBP 141555Z AUTO 10SM OVC012 02/M01 A3052 RMK AO2 T00151010 PNO
KXBP 141535Z AUTO 34003KT 10SM OVC012 02/M01 A3052 RMK AO2 T00151009 PNO
KXBP 141515Z AUTO 03003KT 10SM OVC012 01/M01 A3051 RMK AO2 T00111011
KXBP 141455Z AUTO 7SM OVC012 01/M01 A3050 RMK AO2 6//// T00121009
KXBP 141435Z AUTO 03003KT 7SM OVC012 01/M01 A3050 RMK AO2 T00111010 TSNO
KXBP 141415Z AUTO 04005KT 10SM OVC012 01/M01 A3050 RMK AO2 T00101011
KXBP 141355Z AUTO 10SM OVC012 01/M01 A3050 RMK AO2 T00121009 PNO
KXBP 141335Z AUTO 10SM OVC012 01/M01 A3050 RMK AO2 T00121010